Time;durP1;ratioP1;P1;durP2;ratioP2;P2;SDS_P1;SDS_P2;PMS_P1;PMS_P2;Temp;Humidity;BMP_temperature;BMP_pressure;BME280_temperature;BME280_humidity;BME280_pressure;Samples;Min_cycle;Max_cycle;Signal;HPM_P1;HPM_P2
2023/02/25 00:02:15;;;;;;;21.70;5.90;;;;;;;0.77;81.46;98797.04;79347;1295;3013576;-61
2023/02/25 00:04:41;;;;;;;14.00;7.00;;;;;;;0.94;80.72;98792.55;79486;1295;3011588;-61
2023/02/25 00:07:30;;;;;;;15.40;7.20;;;;;;;0.78;81.56;98786.35;78110;1301;3055995;-61
2023/02/25 00:10:00;;;;;;;16.20;7.00;;;;;;;0.71;82.21;98779.14;79419;1301;3011644;-63
2023/02/25 00:12:28;;;;;;;11.90;6.80;;;;;;;0.59;83.15;98775.87;78339;1301;3028693;-61
2023/02/25 00:14:55;;;;;;;15.60;7.00;;;;;;;0.51;83.38;98777.70;79557;1297;3013176;-62
2023/02/25 00:17:21;;;;;;;13.20;6.90;;;;;;;0.39;84.54;98771.66;79432;1300;3012117;-60
2023/02/25 00:19:49;;;;;;;16.60;8.20;;;;;;;0.28;84.76;98766.84;78169;1295;3054318;-62
2023/02/25 00:22:20;;;;;;;18.20;7.90;;;;;;;0.14;85.62;98766.88;79310;1296;3013307;-60
2023/02/25 00:24:55;;;;;;;13.30;7.50;;;;;;;-0.04;86.75;98766.20;78075;1300;3052029;-62
2023/02/25 00:27:22;;;;;;;11.20;5.20;;;;;;;-0.01;87.26;98764.08;79341;1301;3011784;-61
2023/02/25 00:29:53;;;;;;;13.30;5.90;;;;;;;0.32;86.80;98758.95;78055;1296;3070082;-61
2023/02/25 00:32:20;;;;;;;13.40;6.20;;;;;;;0.77;84.28;98748.44;79460;1294;3012937;-61
2023/02/25 00:34:48;;;;;;;17.80;6.80;;;;;;;0.84;83.19;98747.70;78081;1295;3028807;-62
2023/02/25 00:37:16;;;;;;;11.70;5.90;;;;;;;0.76;83.33;98736.05;79146;1301;3013905;-63
2023/02/25 00:39:46;;;;;;;14.10;7.00;;;;;;;0.56;84.41;98736.18;78089;1301;3049539;-62
2023/02/25 00:42:15;;;;;;;13.70;6.90;;;;;;;0.59;84.51;98730.05;79342;1300;3013238;-61
2023/02/25 00:44:44;;;;;;;12.80;6.70;;;;;;;0.47;84.80;98726.10;79313;1295;3011886;-61
2023/02/25 00:47:13;;;;;;;14.50;7.00;;;;;;;0.21;85.82;98731.89;78139;1295;3052832;-61
2023/02/25 00:49:40;;;;;;;13.40;7.50;;;;;;;0.07;87.07;98726.96;79360;1296;3013431;-61
2023/02/25 00:52:06;;;;;;;12.20;6.40;;;;;;;0.04;87.79;98727.41;79385;1295;3011942;-62
2023/02/25 00:54:35;;;;;;;11.30;5.60;;;;;;;0.42;87.17;98725.40;78168;1295;3049331;-61
2023/02/25 00:57:03;;;;;;;10.30;5.00;;;;;;;0.97;85.57;98720.88;79345;1299;3011180;-61
2023/02/25 00:59:29;;;;;;;11.30;6.30;;;;;;;1.12;83.48;98714.85;79299;1298;3011640;-60
2023/02/25 01:01:57;;;;;;;13.20;6.30;;;;;;;1.10;82.95;98709.41;78022;1300;3050675;-62
2023/02/25 01:04:24;;;;;;;11.70;6.80;;;;;;;0.58;84.41;98709.55;79351;1300;3013665;-60
2023/02/25 01:06:53;;;;;;;14.50;7.90;;;;;;;0.45;85.70;98702.20;79303;1295;3013402;-61
2023/02/25 01:09:21;;;;;;;11.60;5.90;;;;;;;0.38;86.03;98697.77;78158;1299;3050670;-61
2023/02/25 01:11:48;;;;;;;11.60;6.50;;;;;;;0.34;86.44;98696.02;79396;1298;3013604;-62
2023/02/25 01:14:18;;;;;;;14.60;7.30;;;;;;;0.11;87.59;98700.18;79463;1295;3013383;-61
2023/02/25 01:16:47;;;;;;;10.00;4.70;;;;;;;0.05;88.83;98690.35;78103;1300;3054106;-61
2023/02/25 01:19:20;;;;;;;12.70;5.30;;;;;;;0.62;87.49;98693.05;79313;1295;3013591;-61
2023/02/25 01:21:50;;;;;;;11.90;6.60;;;;;;;1.01;85.58;98689.02;78081;1299;3049314;-63
2023/02/25 01:24:25;;;;;;;11.00;5.80;;;;;;;0.71;84.68;98690.70;79368;1295;3014007;-62
2023/02/25 01:26:58;;;;;;;13.40;6.60;;;;;;;0.71;85.47;98681.04;78019;1299;3050021;-63
2023/02/25 01:29:27;;;;;;;14.60;6.10;;;;;;;0.50;86.28;98681.91;79440;1298;3011684;-61
2023/02/25 01:31:57;;;;;;;13.40;6.40;;;;;;;0.48;87.13;98672.48;78000;1301;3051816;-61
2023/02/25 01:34:24;;;;;;;10.90;6.10;;;;;;;0.36;87.78;98671.48;79391;1296;3013289;-63
2023/02/25 01:36:51;;;;;;;11.20;6.00;;;;;;;0.22;88.85;98671.39;79345;1295;3013218;-61
2023/02/25 01:39:20;;;;;;;10.50;6.50;;;;;;;0.21;89.05;98665.94;78239;1300;3051095;-62
2023/02/25 01:41:49;;;;;;;8.30;4.10;;;;;;;0.15;89.59;98663.36;79455;1298;3013084;-61
2023/02/25 01:44:22;;;;;;;10.80;5.10;;;;;;;0.68;88.65;98659.27;78231;1301;3053358;-62
2023/02/25 01:46:52;;;;;;;8.40;4.70;;;;;;;1.00;86.47;98659.19;79484;1295;3011922;-61
2023/02/25 01:49:22;;;;;;;12.60;5.40;;;;;;;0.90;86.00;98658.00;78138;1299;3068806;-60
2023/02/25 01:51:50;;;;;;;8.40;4.90;;;;;;;0.74;86.65;98653.38;79369;1300;3011636;-63
2023/02/25 01:54:18;;;;;;;7.60;5.20;;;;;;;0.73;86.92;98646.67;78199;1298;3027437;-62
2023/02/25 01:56:51;;;;;;;14.20;5.90;;;;;;;0.48;88.08;98652.34;79227;1296;3013514;-62
2023/02/25 01:59:21;;;;;;;12.40;5.20;;;;;;;0.30;88.53;98650.34;78119;1298;3051587;-61
2023/02/25 02:01:51;;;;;;;;;;;;;;;0.21;89.87;98649.23;79192;1295;3011683;-62
2023/02/25 02:04:20;;;;;;;11.50;6.40;;;;;;;0.07;90.31;98652.95;78224;1301;3051917;-61
2023/02/25 02:06:48;;;;;;;6.10;3.40;;;;;;;0.05;91.62;98646.29;79200;1296;3013677;-61
2023/02/25 02:09:17;;;;;;;7.50;3.30;;;;;;;0.62;90.23;98644.30;79428;1295;3011635;-61
2023/02/25 02:11:45;;;;;;;9.50;3.60;;;;;;;0.84;88.44;98643.39;78193;1300;3049475;-62
2023/02/25 02:14:15;;;;;;;12.30;4.70;;;;;;;1.01;87.55;98640.39;79370;1301;3014012;-65
2023/02/25 02:17:26;;;;;;;8.40;4.50;;;;;;;1.01;87.37;98649.33;78096;1299;3052357;-64
2023/02/25 02:19:54;;;;;;;10.60;5.50;;;;;;;0.70;88.65;98651.11;77544;1308;3052432;-63
2023/02/25 02:22:29;;;;;;;10.20;5.80;;;;;;;0.37;89.63;98653.56;79527;1292;3011452;-65
2023/02/25 02:24:59;;;;;;;9.40;5.20;;;;;;;0.25;90.42;98652.20;78308;1298;3052577;-62
2023/02/25 02:27:58;;;;;;;8.30;5.30;;;;;;;0.43;90.73;98644.40;79289;1300;3013349;-61
2023/02/25 02:30:34;;;;;;;9.50;4.60;;;;;;;0.26;91.35;98640.61;78188;1297;3050117;-63
2023/02/25 02:33:19;;;;;;;5.50;3.40;;;;;;;0.71;90.85;98638.82;78145;1295;3054895;-62
2023/02/25 02:36:00;;;;;;;9.00;4.60;;;;;;;1.35;88.09;98633.66;78233;1298;3050491;-62
2023/02/25 02:38:40;;;;;;;8.70;4.70;;;;;;;1.26;88.03;98638.98;78016;1302;3053077;-61
2023/02/25 02:41:24;;;;;;;9.40;4.50;;;;;;;1.27;88.08;98633.44;78028;1300;3053217;-61
2023/02/25 02:44:06;;;;;;;6.80;4.10;;;;;;;0.99;89.01;98633.58;78137;1297;3069347;-62
2023/02/25 02:46:49;;;;;;;7.10;4.70;;;;;;;0.68;89.93;98636.52;78168;1301;3051638;-62
2023/02/25 02:49:37;;;;;;;10.30;5.00;;;;;;;0.57;91.29;98634.29;78000;1300;3057389;-61
2023/02/25 02:52:14;;;;;;;7.60;3.70;;;;;;;0.42;92.85;98624.08;78130;1298;3050234;-62
2023/02/25 02:54:48;;;;;;;6.80;3.40;;;;;;;1.27;91.39;98620.14;78152;1295;3054269;-60
2023/02/25 02:57:15;;;;;;;6.70;3.80;;;;;;;1.56;88.28;98618.92;79363;1295;3011748;-61
2023/02/25 02:59:55;;;;;;;6.40;3.80;;;;;;;1.50;87.69;98615.52;78114;1300;3028974;-62
2023/02/25 03:02:27;;;;;;;9.70;4.60;;;;;;;1.34;87.75;98611.61;78229;1298;3052838;-61
2023/02/25 03:05:01;;;;;;;8.30;4.30;;;;;;;1.01;88.52;98616.06;79496;1297;3013600;-61
2023/02/25 03:07:30;;;;;;;7.10;4.20;;;;;;;1.01;89.10;98611.23;78017;1300;3052825;-62
2023/02/25 03:09:59;;;;;;;7.80;5.00;;;;;;;0.89;89.38;98602.34;79441;1294;3012855;-60
2023/02/25 03:12:28;;;;;;;9.30;5.20;;;;;;;0.62;90.40;98602.20;78021;1298;3051474;-61
2023/02/25 03:14:56;;;;;;;6.20;4.20;;;;;;;0.64;91.40;98600.45;79339;1295;3013009;-61
2023/02/25 03:17:27;;;;;;;8.70;4.40;;;;;;;1.16;90.42;98600.00;79331;1297;3011750;-63
2023/02/25 03:20:21;;;;;;;7.90;5.00;;;;;;;1.58;87.79;98596.39;78084;1295;3053291;-62
2023/02/25 03:22:49;;;;;;;9.50;4.90;;;;;;;1.82;86.63;98595.30;78057;1296;3069005;-62
2023/02/25 03:25:22;;;;;;;11.50;6.50;;;;;;;1.33;87.25;98596.80;79302;1300;3013371;-62
2023/02/25 03:27:52;;;;;;;11.30;6.30;;;;;;;1.24;88.22;98587.64;77991;1299;3050610;-62
2023/02/25 03:30:30;;;;;;;10.80;7.00;;;;;;;0.97;88.67;98584.13;79527;1297;3013964;-60
2023/02/25 03:33:20;;;;;;;12.00;7.40;;;;;;;0.74;90.32;98582.17;78128;1297;3051261;-61
2023/02/25 03:35:49;;;;;;;18.00;6.30;;;;;;;0.67;90.91;98579.83;78071;1297;3054347;-62
2023/02/25 03:38:18;;;;;;;13.30;5.80;;;;;;;0.58;91.73;98579.11;79217;1300;3018207;-62
2023/02/25 03:40:47;;;;;;;10.10;4.50;;;;;;;1.05;91.17;98574.02;78049;1300;3052695;-63
2023/02/25 03:43:21;;;;;;;11.40;5.30;;;;;;;1.37;88.68;98578.19;79357;1299;3013639;-63
2023/02/25 03:45:49;;;;;;;10.70;5.40;;;;;;;1.30;88.00;98576.91;78027;1295;3052909;-61
2023/02/25 03:48:16;;;;;;;10.80;5.40;;;;;;;1.28;88.15;98572.14;79302;1301;3013544;-63
2023/02/25 03:50:47;;;;;;;13.80;5.60;;;;;;;1.21;88.26;98568.27;79268;1300;3011822;-62
2023/02/25 03:53:34;;;;;;;9.70;5.80;;;;;;;0.89;89.55;98562.02;78173;1299;3070741;-63
2023/02/25 03:56:10;;;;;;;12.20;6.40;;;;;;;0.79;91.12;98560.98;78223;1292;3050465;-63
2023/02/25 03:58:39;;;;;;;17.90;7.70;;;;;;;0.81;90.97;98556.77;79638;1292;3011664;-62
2023/02/25 04:01:16;;;;;;;14.40;6.90;;;;;;;0.95;90.94;98551.77;78184;1297;3050467;-61
2023/02/25 04:03:42;;;;;;;17.00;6.50;;;;;;;1.31;90.44;98560.27;79407;1293;3013525;-61
2023/02/25 04:06:15;;;;;;;15.80;7.50;;;;;;;1.71;87.99;98548.95;78313;1298;3050231;-61
2023/02/25 04:08:44;;;;;;;19.10;8.50;;;;;;;1.83;87.11;98547.26;79375;1292;3011578;-62
2023/02/25 04:11:12;;;;;;;18.10;9.20;;;;;;;1.65;87.38;98542.78;78263;1295;3029916;-61
2023/02/25 04:13:41;;;;;;;21.60;9.90;;;;;;;1.53;88.11;98538.60;79475;1293;3013205;-61
2023/02/25 04:16:07;;;;;;;18.80;10.00;;;;;;;1.36;88.98;98532.84;79484;1292;3012015;-62
2023/02/25 04:18:42;;;;;;;21.50;9.60;;;;;;;1.28;89.55;98537.45;78040;1298;3050668;-61
2023/02/25 04:21:40;;;;;;;18.80;9.40;;;;;;;1.23;90.00;98539.22;79386;1295;3012749;-63
2023/02/25 04:24:08;;;;;;;14.90;7.30;;;;;;;1.14;90.29;98525.04;78175;1298;3053979;-61
2023/02/25 04:26:35;;;;;;;17.60;7.10;;;;;;;1.49;89.88;98529.42;79422;1297;3011955;-62
2023/02/25 04:29:02;;;;;;;18.60;7.70;;;;;;;1.80;88.42;98525.63;79252;1293;3011377;-61
2023/02/25 04:31:30;;;;;;;20.70;8.30;;;;;;;1.97;87.37;98529.78;78050;1297;3058042;-61
2023/02/25 04:33:57;;;;;;;15.20;8.10;;;;;;;1.87;87.08;98526.20;79380;1293;3018978;-60
2023/02/25 04:36:31;;;;;;;14.50;7.90;;;;;;;1.59;88.31;98523.51;79400;1295;3011605;-62
2023/02/25 04:39:01;;;;;;;18.70;9.20;;;;;;;1.65;88.65;98516.55;78319;1297;3055122;-61
2023/02/25 04:41:29;;;;;;;19.30;9.80;;;;;;;1.46;89.19;98523.13;79570;1297;3013539;-61
2023/02/25 04:44:03;;;;;;;19.20;9.70;;;;;;;1.31;90.43;98522.15;78218;1296;3069366;-61
2023/02/25 04:46:31;;;;;;;16.00;8.40;;;;;;;1.13;91.45;98527.32;79517;1295;3013454;-61
2023/02/25 04:48:58;;;;;;;17.80;7.00;;;;;;;1.43;91.38;98531.17;79554;1294;3011911;-60
2023/02/25 04:51:30;;;;;;;18.90;9.40;;;;;;;1.80;89.40;98530.64;78302;1292;3052814;-62
2023/02/25 04:53:57;;;;;;;21.00;10.70;;;;;;;1.84;88.50;98525.81;79555;1296;3013427;-61
2023/02/25 04:56:24;;;;;;;17.50;9.60;;;;;;;1.74;88.68;98530.55;79541;1298;3011908;-62
2023/02/25 04:58:52;;;;;;;17.30;9.20;;;;;;;1.63;88.92;98528.70;78309;1297;3070262;-61
2023/02/25 05:01:19;;;;;;;15.60;7.90;;;;;;;1.30;90.11;98531.38;79658;1295;3013480;-61
2023/02/25 05:03:46;;;;;;;18.70;9.70;;;;;;;1.29;90.29;98532.23;78025;1295;3012940;-60
2023/02/25 05:06:14;;;;;;;14.80;6.50;;;;;;;1.10;91.44;98526.73;78363;1298;3029465;-61
2023/02/25 05:08:45;;;;;;;16.00;7.60;;;;;;;1.53;91.65;98531.34;79494;1293;3013484;-62
2023/02/25 05:11:13;;;;;;;13.40;7.10;;;;;;;1.68;90.02;98527.29;78396;1297;3026458;-61
2023/02/25 05:13:40;;;;;;;14.60;7.70;;;;;;;1.91;88.78;98523.29;79645;1297;3019332;-60
2023/02/25 05:16:10;;;;;;;15.60;8.10;;;;;;;1.82;88.63;98516.05;79499;1292;3013431;-62
2023/02/25 05:18:40;;;;;;;17.80;8.50;;;;;;;1.63;89.28;98515.58;78264;1292;3057143;-62
2023/02/25 05:21:11;;;;;;;18.50;8.10;;;;;;;1.55;89.93;98516.10;79582;1294;3013609;-60
2023/02/25 05:23:44;;;;;;;16.40;8.60;;;;;;;1.44;90.56;98515.46;78267;1297;3052020;-61
2023/02/25 05:26:11;;;;;;;18.80;9.10;;;;;;;1.25;91.29;98519.30;79606;1297;3011873;-61
2023/02/25 05:28:42;;;;;;;16.60;7.20;;;;;;;1.14;92.72;98515.73;78319;1297;3051839;-63
2023/02/25 05:31:10;;;;;;;15.70;6.70;;;;;;;1.75;91.37;98513.92;79491;1292;3013022;-60
2023/02/25 05:33:40;;;;;;;19.80;7.70;;;;;;;2.12;88.02;98509.99;79099;1292;3011778;-62
2023/02/25 05:36:07;;;;;;;20.30;10.10;;;;;;;2.15;86.82;98503.69;79586;1293;3018369;-61
2023/02/25 05:38:35;;;;;;;25.90;12.20;;;;;;;1.90;86.42;98509.03;79538;1294;3013118;-61
2023/02/25 05:41:04;;;;;;;24.10;11.60;;;;;;;1.78;87.10;98506.56;78438;1296;3050216;-61
2023/02/25 05:43:31;;;;;;;28.50;12.60;;;;;;;1.76;87.21;98506.11;79558;1297;3013124;-61
2023/02/25 05:46:00;;;;;;;27.70;12.50;;;;;;;1.73;86.96;98501.92;79524;1296;3011561;-60
2023/02/25 05:48:29;;;;;;;25.90;13.20;;;;;;;1.61;87.18;98497.38;78303;1298;3051740;-62
2023/02/25 05:51:04;;;;;;;23.10;11.30;;;;;;;1.54;87.49;98496.10;79529;1293;3013158;-62
2023/02/25 05:53:32;;;;;;;15.50;8.00;;;;;;;1.52;87.74;98499.63;78285;1297;3050701;-61
2023/02/25 05:56:05;;;;;;;18.00;7.80;;;;;;;1.95;86.27;98494.27;79539;1292;3011652;-62
2023/02/25 05:58:33;;;;;;;18.40;8.70;;;;;;;2.45;83.77;98481.49;78290;1296;3048051;-61
2023/02/25 06:01:12;;;;;;;19.80;9.10;;;;;;;2.33;82.96;98481.13;79553;1297;3014138;-62
2023/02/25 06:03:41;;;;;;;21.50;9.20;;;;;;;2.16;83.67;98480.13;78321;1297;3068976;-60
2023/02/25 06:06:09;;;;;;;20.30;9.50;;;;;;;2.18;83.38;98478.15;79592;1295;3013868;-60
2023/02/25 06:08:41;;;;;;;19.40;9.00;;;;;;;1.96;83.81;98478.35;78360;1295;3050227;-61
2023/02/25 06:11:08;;;;;;;16.20;8.20;;;;;;;1.78;84.60;98480.66;79586;1292;3013340;-59
2023/02/25 06:13:40;;;;;;;13.70;7.80;;;;;;;1.75;85.09;98480.23;78276;1297;3051334;-62
2023/02/25 06:16:07;;;;;;;16.70;8.70;;;;;;;1.67;85.37;98479.36;79579;1296;3013309;-60
2023/02/25 06:18:38;;;;;;;14.40;6.20;;;;;;;1.58;85.30;98479.90;78360;1297;3051952;-61
2023/02/25 06:21:06;;;;;;;13.10;5.60;;;;;;;2.05;84.81;98473.14;79547;1293;3013515;-63
2023/02/25 06:23:38;;;;;;;15.90;6.70;;;;;;;2.52;82.46;98466.16;78983;1297;3011670;-63
2023/02/25 06:26:10;;;;;;;14.20;6.90;;;;;;;2.50;81.96;98467.81;79512;1292;3011596;-62
2023/02/25 06:28:38;;;;;;;15.60;7.80;;;;;;;2.39;82.21;98468.11;78329;1297;3050647;-61
2023/02/25 06:31:09;;;;;;;15.10;7.20;;;;;;;2.04;83.09;98468.52;79534;1297;3013597;-61
2023/02/25 06:33:38;;;;;;;13.40;7.00;;;;;;;2.00;83.56;98467.67;78320;1297;3053505;-60
2023/02/25 06:36:06;;;;;;;15.90;7.90;;;;;;;1.79;84.57;98459.18;79684;1297;3014374;-60
2023/02/25 06:38:33;;;;;;;21.90;8.80;;;;;;;1.85;84.73;98450.82;79646;1292;3013115;-61
2023/02/25 06:41:27;;;;;;;17.70;8.80;;;;;;;1.79;84.49;98447.64;78324;1297;3056480;-62
2023/02/25 06:43:57;;;;;;;17.50;7.10;;;;;;;1.64;85.50;98454.77;78244;1297;3051067;-60
2023/02/25 06:46:24;;;;;;;10.20;5.50;;;;;;;2.21;84.34;98445.50;79504;1295;3013460;-59
2023/02/25 06:48:51;;;;;;;15.10;7.20;;;;;;;2.67;81.13;98442.14;79378;1294;3013151;-62
2023/02/25 06:51:19;;;;;;;15.70;7.40;;;;;;;2.75;80.01;98437.66;78389;1294;3052511;-62
2023/02/25 06:53:46;;;;;;;15.40;7.90;;;;;;;2.62;79.48;98431.98;79670;1295;3018550;-60
2023/02/25 06:56:13;;;;;;;17.10;7.30;;;;;;;2.30;80.53;98428.56;79571;1298;3011934;-62
2023/02/25 06:58:41;;;;;;;14.20;7.30;;;;;;;2.09;80.65;98433.10;78326;1295;3028885;-61
2023/02/25 07:01:13;;;;;;;18.10;8.30;;;;;;;2.00;80.93;98429.84;79456;1294;3011461;-62
2023/02/25 07:03:42;;;;;;;18.70;8.10;;;;;;;1.97;81.08;98430.64;78542;1294;3050651;-62
2023/02/25 07:06:10;;;;;;;21.70;7.90;;;;;;;1.90;81.01;98429.41;79538;1296;3013016;-61
2023/02/25 07:08:39;;;;;;;17.50;7.70;;;;;;;1.77;81.31;98426.66;78973;1295;3011653;-61
2023/02/25 07:11:13;;;;;;;15.80;7.20;;;;;;;1.80;81.41;98427.73;79461;1295;3013329;-61
2023/02/25 07:13:42;;;;;;;16.70;8.00;;;;;;;1.62;81.31;98426.55;78285;1294;3051838;-60
2023/02/25 07:16:10;;;;;;;11.90;4.90;;;;;;;1.66;81.97;98425.04;79755;1297;3012682;-60
2023/02/25 07:18:43;;;;;;;9.10;4.70;;;;;;;2.27;81.07;98423.31;78307;1297;3053364;-61
2023/02/25 07:21:13;;;;;;;12.00;6.00;;;;;;;2.56;79.22;98422.05;79702;1295;3013632;-61
2023/02/25 07:23:42;;;;;;;13.60;6.60;;;;;;;2.63;78.88;98422.80;79048;1295;3011635;-61
2023/02/25 07:26:10;;;;;;;14.30;6.50;;;;;;;2.54;78.89;98417.50;79497;1297;3013165;-62
2023/02/25 07:28:37;;;;;;;13.80;7.10;;;;;;;2.29;79.96;98413.90;79486;1295;3013208;-61
2023/02/25 07:31:13;;;;;;;16.00;8.00;;;;;;;2.29;80.09;98414.59;78214;1298;3057101;-61
2023/02/25 07:33:45;;;;;;;18.30;7.40;;;;;;;2.03;81.01;98413.48;78351;1298;3049972;-61
2023/02/25 07:36:13;;;;;;;16.50;7.90;;;;;;;1.93;81.98;98413.70;79439;1295;3013743;-63
2023/02/25 07:38:40;;;;;;;16.60;8.10;;;;;;;2.02;82.26;98411.28;79462;1297;3011592;-60
2023/02/25 07:41:12;;;;;;;15.70;7.80;;;;;;;1.85;83.09;98416.11;78204;1297;3052913;-63
2023/02/25 07:43:39;;;;;;;10.60;5.70;;;;;;;1.86;83.79;98416.23;79456;1295;3011887;-61
2023/02/25 07:46:08;;;;;;;9.10;4.80;;;;;;;2.42;82.11;98418.88;78384;1294;3050373;-62
2023/02/25 07:48:35;;;;;;;9.70;5.10;;;;;;;2.59;80.50;98417.10;79611;1296;3012900;-63
2023/02/25 07:51:14;;;;;;;9.90;5.70;;;;;;;2.89;79.30;98409.17;79541;1297;3011680;-60
2023/02/25 07:53:43;;;;;;;17.70;6.70;;;;;;;2.78;78.86;98409.50;78247;1298;3051695;-62
2023/02/25 07:56:10;;;;;;;14.00;6.50;;;;;;;2.50;80.47;98408.66;79582;1295;3013390;-62
2023/02/25 07:58:38;;;;;;;13.00;6.20;;;;;;;2.29;81.35;98403.36;79426;1293;3011857;-62
2023/02/25 08:01:10;;;;;;;13.20;6.70;;;;;;;2.14;81.99;98402.46;78291;1297;3052439;-62
2023/02/25 08:03:37;;;;;;;16.00;6.60;;;;;;;2.09;82.38;98398.02;79512;1294;3012030;-60
2023/02/25 08:06:07;;;;;;;11.90;5.70;;;;;;;2.16;83.01;98401.69;78357;1293;3050806;-62
2023/02/25 08:08:35;;;;;;;15.80;7.00;;;;;;;2.12;82.60;98398.94;79446;1293;3013144;-62
2023/02/25 08:11:07;;;;;;;10.70;5.30;;;;;;;2.08;83.20;98405.50;79003;1295;3013104;-62
2023/02/25 08:13:34;;;;;;;8.90;4.20;;;;;;;2.58;82.55;98393.42;79580;1297;3013485;-61
2023/02/25 08:16:06;;;;;;;11.90;5.30;;;;;;;3.04;80.00;98385.11;78360;1297;3029002;-63
2023/02/25 08:18:34;;;;;;;12.20;5.20;;;;;;;2.86;79.32;98385.11;79534;1293;3013377;-61
2023/02/25 08:21:03;;;;;;;8.40;4.70;;;;;;;2.80;79.84;98381.55;78202;1296;3051382;-62
2023/02/25 08:23:30;;;;;;;9.00;4.70;;;;;;;2.59;80.23;98379.75;79509;1294;3013846;-63
2023/02/25 08:25:57;;;;;;;10.40;5.00;;;;;;;2.51;80.59;98380.30;79500;1295;3011819;-61
2023/02/25 08:28:25;;;;;;;11.00;5.30;;;;;;;2.48;81.06;98375.22;78389;1295;3050964;-61
2023/02/25 08:30:53;;;;;;;10.80;6.20;;;;;;;2.33;81.36;98376.07;79516;1296;3013400;-61
2023/02/25 08:33:20;;;;;;;9.80;5.70;;;;;;;2.39;81.74;98374.61;79521;1297;3011458;-62
2023/02/25 08:35:48;;;;;;;10.70;4.80;;;;;;;2.27;82.40;98374.94;78237;1293;3051362;-61
2023/02/25 08:38:16;;;;;;;7.90;3.40;;;;;;;2.48;81.85;98360.88;79600;1295;3013320;-62
2023/02/25 08:40:42;;;;;;;10.70;3.90;;;;;;;2.88;80.95;98363.70;79536;1292;3011988;-60
2023/02/25 08:43:10;;;;;;;8.40;4.30;;;;;;;3.27;79.14;98365.68;78226;1297;3051876;-62
2023/02/25 08:45:37;;;;;;;14.80;4.10;;;;;;;3.23;79.13;98364.46;79462;1298;3013776;-62
2023/02/25 08:48:04;;;;;;;11.80;5.30;;;;;;;3.22;79.03;98353.64;79499;1297;3013002;-61
2023/02/25 08:50:32;;;;;;;12.80;5.40;;;;;;;3.07;79.82;98357.46;78288;1295;3027401;-61
2023/02/25 08:53:00;;;;;;;10.00;5.40;;;;;;;3.04;80.11;98349.83;79492;1296;3011645;-61
2023/02/25 08:55:28;;;;;;;10.70;5.30;;;;;;;2.87;80.69;98351.67;79537;1295;3011878;-62
2023/02/25 08:57:56;;;;;;;10.80;5.00;;;;;;;2.82;81.42;98346.52;78305;1295;3049215;-60
2023/02/25 09:00:24;;;;;;;10.90;5.30;;;;;;;2.77;81.61;98347.43;79663;1298;3016058;-63
2023/02/25 09:02:54;;;;;;;11.50;4.90;;;;;;;2.81;81.47;98343.64;78435;1297;3069940;-63
2023/02/25 09:05:23;;;;;;;9.40;5.00;;;;;;;2.80;81.37;98346.60;79614;1293;3018775;-65
2023/02/25 09:07:53;;;;;;;7.70;3.30;;;;;;;2.74;81.59;98349.86;79009;1294;3012826;-63
2023/02/25 09:10:20;;;;;;;6.30;3.60;;;;;;;3.33;80.03;98339.23;79510;1292;3014589;-63
2023/02/25 09:12:48;;;;;;;9.80;4.80;;;;;;;3.77;77.95;98334.45;79475;1295;3011875;-62
2023/02/25 09:15:21;;;;;;;11.50;4.70;;;;;;;3.87;77.18;98336.39;78238;1295;3053677;-64
2023/02/25 09:17:50;;;;;;;9.30;4.90;;;;;;;3.59;77.86;98330.20;79647;1295;3012876;-62
2023/02/25 09:20:17;;;;;;;9.40;4.70;;;;;;;3.43;78.84;98329.26;79588;1295;3011631;-63
2023/02/25 09:22:45;;;;;;;8.60;5.00;;;;;;;3.30;79.63;98323.81;78483;1296;3059304;-62
2023/02/25 09:25:12;;;;;;;13.10;4.90;;;;;;;3.31;79.78;98317.04;79531;1296;3013755;-62
2023/02/25 09:27:39;;;;;;;12.30;5.30;;;;;;;3.30;80.59;98310.70;79572;1294;3011523;-63
2023/02/25 09:30:08;;;;;;;13.10;5.20;;;;;;;3.29;80.81;98303.45;78214;1297;3052664;-62
2023/02/25 09:32:35;;;;;;;9.80;5.50;;;;;;;3.29;81.26;98291.83;79537;1297;3015094;-62
2023/02/25 09:35:02;;;;;;;9.30;4.80;;;;;;;3.35;81.22;98287.90;79434;1295;3012619;-61
2023/02/25 09:37:30;;;;;;;8.60;3.70;;;;;;;3.34;81.40;98292.30;78222;1298;3057396;-61
2023/02/25 09:39:57;;;;;;;9.50;3.70;;;;;;;3.88;80.36;98284.88;79668;1297;3012948;-62
2023/02/25 09:42:30;;;;;;;13.70;6.20;;;;;;;4.22;78.31;98281.73;79633;1292;3013410;-61
2023/02/25 09:44:59;;;;;;;9.40;4.60;;;;;;;4.28;77.93;98275.36;78268;1297;3054407;-63
2023/02/25 09:47:33;;;;;;;21.30;9.10;;;;;;;4.17;78.43;98265.02;79589;1298;3012828;-62
2023/02/25 09:50:24;;;;;;;13.40;7.00;;;;;;;4.10;78.84;98265.02;78247;1297;3053106;-65
2023/02/25 09:52:59;;;;;;;9.20;4.50;;;;;;;4.02;79.31;98264.59;78237;1297;3058822;-63
2023/02/25 09:55:31;;;;;;;15.10;5.00;;;;;;;3.91;80.15;98250.98;78825;1292;3011696;-63
2023/02/25 09:58:12;;;;;;;10.50;5.60;;;;;;;3.81;80.76;98251.85;79496;1294;3011567;-62
2023/02/25 10:01:01;;;;;;;12.10;6.10;;;;;;;3.82;81.35;98242.05;78157;1297;3053630;-64
2023/02/25 10:03:38;;;;;;;9.20;3.10;;;;;;;3.74;82.19;98242.14;78041;1298;3051022;-63
2023/02/25 10:06:13;;;;;;;12.00;3.90;;;;;;;4.46;80.46;98244.38;78173;1298;3052699;-63
2023/02/25 10:08:58;;;;;;;11.80;5.10;;;;;;;4.35;80.07;98248.11;78188;1297;3053750;-63
2023/02/25 10:11:49;;;;;;;14.40;6.90;;;;;;;4.57;79.47;98241.36;78091;1298;3069554;-62
2023/02/25 10:14:19;;;;;;;17.90;6.30;;;;;;;4.40;80.26;98239.67;78212;1292;3053538;-62
2023/02/25 10:16:49;;;;;;;14.80;5.50;;;;;;;4.30;80.69;98243.88;79604;1294;3013595;-61
2023/02/25 10:19:38;;;;;;;11.20;5.90;;;;;;;4.30;80.44;98245.60;79062;1295;3013061;-61
2023/02/25 10:22:24;;;;;;;16.80;6.70;;;;;;;4.32;80.38;98246.48;78203;1293;3053533;-61
2023/02/25 10:25:10;;;;;;;16.90;4.80;;;;;;;4.38;80.37;98233.20;79641;1297;3012901;-60
2023/02/25 10:28:10;;;;;;;13.20;4.70;;;;;;;4.30;80.59;98232.25;78266;1298;3053098;-62
2023/02/25 10:30:44;;;;;;;16.80;6.60;;;;;;;4.31;80.62;98226.98;78116;1295;3053511;-62
2023/02/25 10:33:20;;;;;;;5.10;2.80;;;;;;;4.39;80.81;98219.39;79501;1294;3012818;-63
2023/02/25 10:35:50;;;;;;;12.20;4.30;;;;;;;4.96;78.95;98216.26;77942;1301;3052493;-63
2023/02/25 10:38:16;;;;;;;12.70;4.50;;;;;;;5.36;77.07;98215.15;79594;1292;3013730;-62
2023/02/25 10:40:43;;;;;;;13.30;5.90;;;;;;;5.37;76.87;98211.09;79546;1295;3011551;-63
2023/02/25 10:43:19;;;;;;;13.00;5.40;;;;;;;5.47;76.21;98204.95;78186;1298;3050731;-62
2023/02/25 10:45:54;;;;;;;11.40;5.00;;;;;;;5.17;77.23;98205.70;78324;1297;3052967;-61
2023/02/25 10:48:23;;;;;;;14.20;5.10;;;;;;;4.97;77.97;98200.23;78979;1294;3013732;-62
2023/02/25 10:51:10;;;;;;;12.60;5.50;;;;;;;4.99;78.55;98196.14;79505;1297;3011647;-61
2023/02/25 10:54:00;;;;;;;9.30;4.50;;;;;;;4.95;78.49;98199.98;78236;1297;3069393;-61
2023/02/25 10:56:44;;;;;;;10.30;5.40;;;;;;;4.88;79.26;98197.94;78273;1298;3051976;-63
2023/02/25 10:59:36;;;;;;;10.40;5.30;;;;;;;4.71;80.17;98205.72;78208;1295;3057838;-62
2023/02/25 11:02:25;;;;;;;13.00;6.00;;;;;;;4.68;80.65;98204.13;78275;1294;3049843;-62
2023/02/25 11:04:53;;;;;;;6.60;3.30;;;;;;;4.66;81.80;98203.35;78202;1295;3054016;-63
2023/02/25 11:07:37;;;;;;;15.20;4.30;;;;;;;5.37;79.74;98196.34;79480;1298;3011573;-62
2023/02/25 11:10:19;;;;;;;12.20;5.00;;;;;;;5.51;78.28;98206.81;78287;1297;3054688;-61
2023/02/25 11:12:51;;;;;;;14.00;5.60;;;;;;;5.39;78.94;98206.98;78282;1297;3053061;-65
2023/02/25 11:15:25;;;;;;;13.50;5.40;;;;;;;5.32;79.53;98198.34;79529;1295;3011506;-62
2023/02/25 11:17:54;;;;;;;13.10;6.30;;;;;;;5.37;79.80;98190.59;78135;1295;3050975;-63
2023/02/25 11:20:23;;;;;;;9.40;5.30;;;;;;;5.25;80.32;98188.88;79545;1295;3013803;-64
2023/02/25 11:22:53;;;;;;;15.10;6.10;;;;;;;5.00;81.58;98188.21;78779;1295;3011554;-64
2023/02/25 11:25:29;;;;;;;11.00;5.20;;;;;;;5.11;81.61;98179.27;79328;1300;3013522;-63
2023/02/25 11:27:57;;;;;;;10.70;5.60;;;;;;;5.22;81.02;98176.91;78109;1301;3053323;-62
2023/02/25 11:30:36;;;;;;;11.70;7.20;;;;;;;5.32;80.26;98176.81;79417;1297;3013308;-62
2023/02/25 11:33:13;;;;;;;14.00;4.60;;;;;;;5.21;80.72;98178.20;78553;1295;3052971;-62
2023/02/25 11:35:44;;;;;;;13.10;4.70;;;;;;;5.88;78.53;98173.79;78319;1297;3058790;-63
2023/02/25 11:38:34;;;;;;;11.10;4.70;;;;;;;6.28;76.26;98168.56;79506;1295;3012141;-62
2023/02/25 11:41:03;;;;;;;10.20;5.00;;;;;;;6.40;75.58;98159.80;78317;1293;3054365;-63